sensor_id;sensor_type;location;lat;lon;timestamp;P1;durP1;ratioP1;P2;durP2;ratioP2
7162;SDS011;3623;47.098;15.446;2023-02-02T00:00:52;1.27;;;1.20;;
7162;SDS011;3623;47.098;15.446;2023-02-02T00:03:19;1.55;;;1.45;;
7162;SDS011;3623;47.098;15.446;2023-02-02T00:05:46;1.13;;;1.10;;
7162;SDS011;3623;47.098;15.446;2023-02-02T00:08:16;0.90;;;0.90;;
7162;SDS011;3623;47.098;15.446;2023-02-02T00:10:43;1.45;;;1.35;;
7162;SDS011;3623;47.098;15.446;2023-02-02T00:13:11;1.35;;;1.35;;
7162;SDS011;3623;47.098;15.446;2023-02-02T00:15:38;1.02;;;1.02;;
7162;SDS011;3623;47.098;15.446;2023-02-02T00:18:05;1.10;;;1.10;;
7162;SDS011;3623;47.098;15.446;2023-02-02T00:20:33;0.88;;;0.88;;
7162;SDS011;3623;47.098;15.446;2023-02-02T00:23:00;1.00;;;1.00;;
7162;SDS011;3623;47.098;15.446;2023-02-02T00:25:29;1.83;;;1.20;;
7162;SDS011;3623;47.098;15.446;2023-02-02T00:27:57;1.20;;;1.10;;
7162;SDS011;3623;47.098;15.446;2023-02-02T00:30:24;1.05;;;1.05;;
7162;SDS011;3623;47.098;15.446;2023-02-02T00:32:51;1.40;;;1.30;;
7162;SDS011;3623;47.098;15.446;2023-02-02T00:35:18;1.17;;;1.17;;
7162;SDS011;3623;47.098;15.446;2023-02-02T00:37:45;0.90;;;0.90;;
7162;SDS011;3623;47.098;15.446;2023-02-02T00:40:12;1.48;;;1.02;;
7162;SDS011;3623;47.098;15.446;2023-02-02T00:42:41;0.88;;;0.88;;
7162;SDS011;3623;47.098;15.446;2023-02-02T00:45:13;0.90;;;0.90;;
7162;SDS011;3623;47.098;15.446;2023-02-02T00:47:43;7.22;;;1.08;;
7162;SDS011;3623;47.098;15.446;2023-02-02T00:50:12;1.30;;;1.27;;
7162;SDS011;3623;47.098;15.446;2023-02-02T00:52:40;1.10;;;1.10;;
7162;SDS011;3623;47.098;15.446;2023-02-02T00:55:07;1.00;;;1.00;;
7162;SDS011;3623;47.098;15.446;2023-02-02T00:57:35;0.95;;;0.95;;
7162;SDS011;3623;47.098;15.446;2023-02-02T01:00:05;1.10;;;1.00;;
7162;SDS011;3623;47.098;15.446;2023-02-02T01:02:33;1.15;;;1.13;;
7162;SDS011;3623;47.098;15.446;2023-02-02T01:05:01;1.30;;;1.20;;
7162;SDS011;3623;47.098;15.446;2023-02-02T01:07:28;1.35;;;0.90;;
7162;SDS011;3623;47.098;15.446;2023-02-02T01:09:55;1.05;;;1.05;;
7162;SDS011;3623;47.098;15.446;2023-02-02T01:12:22;0.90;;;0.90;;
7162;SDS011;3623;47.098;15.446;2023-02-02T01:14:50;1.10;;;0.95;;
7162;SDS011;3623;47.098;15.446;2023-02-02T01:17:18;1.20;;;1.20;;
7162;SDS011;3623;47.098;15.446;2023-02-02T01:19:45;1.00;;;1.00;;
7162;SDS011;3623;47.098;15.446;2023-02-02T01:22:12;1.13;;;1.13;;
7162;SDS011;3623;47.098;15.446;2023-02-02T01:24:39;1.52;;;0.70;;
7162;SDS011;3623;47.098;15.446;2023-02-02T01:27:06;0.90;;;0.90;;
7162;SDS011;3623;47.098;15.446;2023-02-02T01:29:33;0.90;;;0.90;;
7162;SDS011;3623;47.098;15.446;2023-02-02T01:32:00;0.80;;;0.80;;
7162;SDS011;3623;47.098;15.446;2023-02-02T01:34:29;2.20;;;0.85;;
7162;SDS011;3623;47.098;15.446;2023-02-02T01:36:56;0.80;;;0.80;;
7162;SDS011;3623;47.098;15.446;2023-02-02T01:39:23;1.40;;;1.30;;
7162;SDS011;3623;47.098;15.446;2023-02-02T01:41:50;1.65;;;1.05;;
7162;SDS011;3623;47.098;15.446;2023-02-02T01:47:34;3.22;;;1.00;;
7162;SDS011;3623;47.098;15.446;2023-02-02T01:50:06;0.82;;;0.82;;
7162;SDS011;3623;47.098;15.446;2023-02-02T01:52:35;0.85;;;0.85;;
7162;SDS011;3623;47.098;15.446;2023-02-02T01:55:04;0.80;;;0.80;;
7162;SDS011;3623;47.098;15.446;2023-02-02T01:57:42;0.82;;;0.82;;
7162;SDS011;3623;47.098;15.446;2023-02-02T02:00:13;1.13;;;1.02;;
7162;SDS011;3623;47.098;15.446;2023-02-02T02:02:43;0.80;;;0.80;;
7162;SDS011;3623;47.098;15.446;2023-02-02T02:05:17;0.80;;;0.80;;
7162;SDS011;3623;47.098;15.446;2023-02-02T02:07:48;0.90;;;0.90;;
7162;SDS011;3623;47.098;15.446;2023-02-02T02:10:21;1.80;;;0.73;;
7162;SDS011;3623;47.098;15.446;2023-02-02T02:12:48;0.80;;;0.80;;
7162;SDS011;3623;47.098;15.446;2023-02-02T02:15:15;0.80;;;0.80;;
7162;SDS011;3623;47.098;15.446;2023-02-02T02:18:07;0.80;;;0.80;;
7162;SDS011;3623;47.098;15.446;2023-02-02T02:20:57;1.05;;;0.93;;
7162;SDS011;3623;47.098;15.446;2023-02-02T02:24:39;0.90;;;0.90;;
7162;SDS011;3623;47.098;15.446;2023-02-02T02:31:06;0.95;;;0.95;;
7162;SDS011;3623;47.098;15.446;2023-02-02T02:33:58;0.80;;;0.80;;
7162;SDS011;3623;47.098;15.446;2023-02-02T02:36:31;0.80;;;0.80;;
7162;SDS011;3623;47.098;15.446;2023-02-02T02:39:11;1.38;;;0.90;;
7162;SDS011;3623;47.098;15.446;2023-02-02T02:41:45;0.80;;;0.80;;
7162;SDS011;3623;47.098;15.446;2023-02-02T02:44:15;0.77;;;0.77;;
7162;SDS011;3623;47.098;15.446;2023-02-02T02:46:45;0.77;;;0.77;;
7162;SDS011;3623;47.098;15.446;2023-02-02T02:49:14;0.95;;;0.95;;
7162;SDS011;3623;47.098;15.446;2023-02-02T02:51:44;0.90;;;0.90;;
7162;SDS011;3623;47.098;15.446;2023-02-02T02:54:14;0.75;;;0.75;;
7162;SDS011;3623;47.098;15.446;2023-02-02T02:56:51;1.05;;;1.05;;
7162;SDS011;3623;47.098;15.446;2023-02-02T02:59:28;0.95;;;0.95;;
7162;SDS011;3623;47.098;15.446;2023-02-02T03:02:11;0.70;;;0.70;;
7162;SDS011;3623;47.098;15.446;2023-02-02T03:04:54;0.70;;;0.70;;
7162;SDS011;3623;47.098;15.446;2023-02-02T03:07:33;0.70;;;0.70;;
7162;SDS011;3623;47.098;15.446;2023-02-02T03:10:03;0.90;;;0.90;;
7162;SDS011;3623;47.098;15.446;2023-02-02T03:12:33;0.73;;;0.73;;
7162;SDS011;3623;47.098;15.446;2023-02-02T03:15:08;0.82;;;0.82;;
7162;SDS011;3623;47.098;15.446;2023-02-02T03:17:36;1.42;;;0.75;;
7162;SDS011;3623;47.098;15.446;2023-02-02T03:20:05;0.88;;;0.88;;
7162;SDS011;3623;47.098;15.446;2023-02-02T03:22:32;3.90;;;0.80;;
7162;SDS011;3623;47.098;15.446;2023-02-02T03:24:59;0.88;;;0.88;;
7162;SDS011;3623;47.098;15.446;2023-02-02T03:27:26;0.70;;;0.70;;
7162;SDS011;3623;47.098;15.446;2023-02-02T03:29:54;0.88;;;0.88;;
7162;SDS011;3623;47.098;15.446;2023-02-02T03:32:21;0.95;;;0.95;;
7162;SDS011;3623;47.098;15.446;2023-02-02T03:34:48;0.82;;;0.82;;
7162;SDS011;3623;47.098;15.446;2023-02-02T03:37:17;1.08;;;1.08;;
7162;SDS011;3623;47.098;15.446;2023-02-02T03:39:44;1.00;;;0.90;;
7162;SDS011;3623;47.098;15.446;2023-02-02T03:42:11;0.88;;;0.88;;
7162;SDS011;3623;47.098;15.446;2023-02-02T03:44:38;0.75;;;0.75;;
7162;SDS011;3623;47.098;15.446;2023-02-02T03:47:05;0.77;;;0.77;;
7162;SDS011;3623;47.098;15.446;2023-02-02T03:49:32;0.70;;;0.70;;
7162;SDS011;3623;47.098;15.446;2023-02-02T03:51:59;0.70;;;0.70;;
7162;SDS011;3623;47.098;15.446;2023-02-02T03:54:29;1.15;;;0.80;;
7162;SDS011;3623;47.098;15.446;2023-02-02T03:56:56;0.70;;;0.70;;
7162;SDS011;3623;47.098;15.446;2023-02-02T03:59:23;1.38;;;1.20;;
7162;SDS011;3623;47.098;15.446;2023-02-02T04:01:50;2.00;;;1.60;;
7162;SDS011;3623;47.098;15.446;2023-02-02T04:04:17;1.30;;;1.20;;
7162;SDS011;3623;47.098;15.446;2023-02-02T04:06:44;2.30;;;2.13;;
7162;SDS011;3623;47.098;15.446;2023-02-02T04:09:11;1.80;;;1.70;;
7162;SDS011;3623;47.098;15.446;2023-02-02T04:11:40;1.13;;;1.05;;
7162;SDS011;3623;47.098;15.446;2023-02-02T04:14:08;0.77;;;0.77;;
7162;SDS011;3623;47.098;15.446;2023-02-02T04:16:35;0.90;;;0.90;;
7162;SDS011;3623;47.098;15.446;2023-02-02T04:19:02;0.70;;;0.70;;
7162;SDS011;3623;47.098;15.446;2023-02-02T04:21:29;0.80;;;0.80;;
7162;SDS011;3623;47.098;15.446;2023-02-02T04:23:57;0.80;;;0.80;;
7162;SDS011;3623;47.098;15.446;2023-02-02T04:26:24;0.70;;;0.70;;
7162;SDS011;3623;47.098;15.446;2023-02-02T04:28:54;0.80;;;0.80;;
7162;SDS011;3623;47.098;15.446;2023-02-02T04:31:21;1.10;;;1.10;;
7162;SDS011;3623;47.098;15.446;2023-02-02T04:33:48;1.35;;;0.70;;
7162;SDS011;3623;47.098;15.446;2023-02-02T04:36:15;0.90;;;0.90;;
7162;SDS011;3623;47.098;15.446;2023-02-02T04:38:42;0.80;;;0.80;;
7162;SDS011;3623;47.098;15.446;2023-02-02T04:41:09;0.75;;;0.75;;
7162;SDS011;3623;47.098;15.446;2023-02-02T04:43:38;0.70;;;0.70;;
7162;SDS011;3623;47.098;15.446;2023-02-02T04:46:08;0.90;;;0.90;;
7162;SDS011;3623;47.098;15.446;2023-02-02T04:48:36;0.70;;;0.70;;
7162;SDS011;3623;47.098;15.446;2023-02-02T04:51:04;0.80;;;0.80;;
7162;SDS011;3623;47.098;15.446;2023-02-02T04:53:34;0.95;;;0.95;;
7162;SDS011;3623;47.098;15.446;2023-02-02T04:56:04;1.00;;;1.00;;
7162;SDS011;3623;47.098;15.446;2023-02-02T04:58:32;0.70;;;0.70;;
7162;SDS011;3623;47.098;15.446;2023-02-02T05:00:59;0.90;;;0.90;;
7162;SDS011;3623;47.098;15.446;2023-02-02T05:03:27;0.85;;;0.85;;
7162;SDS011;3623;47.098;15.446;2023-02-02T05:05:59;1.25;;;0.85;;
7162;SDS011;3623;47.098;15.446;2023-02-02T05:08:27;0.80;;;0.80;;
7162;SDS011;3623;47.098;15.446;2023-02-02T05:10:54;0.93;;;0.93;;
7162;SDS011;3623;47.098;15.446;2023-02-02T05:13:21;1.00;;;1.00;;
7162;SDS011;3623;47.098;15.446;2023-02-02T05:15:48;2.05;;;1.05;;
7162;SDS011;3623;47.098;15.446;2023-02-02T05:18:15;1.00;;;1.00;;
7162;SDS011;3623;47.098;15.446;2023-02-02T05:20:44;1.27;;;1.17;;
7162;SDS011;3623;47.098;15.446;2023-02-02T05:23:11;1.50;;;1.40;;
7162;SDS011;3623;47.098;15.446;2023-02-02T05:25:38;1.50;;;1.40;;
7162;SDS011;3623;47.098;15.446;2023-02-02T05:28:05;1.40;;;1.40;;
7162;SDS011;3623;47.098;15.446;2023-02-02T05:30:32;1.85;;;1.75;;
7162;SDS011;3623;47.098;15.446;2023-02-02T05:32:59;1.90;;;1.80;;
7162;SDS011;3623;47.098;15.446;2023-02-02T05:35:26;1.23;;;1.00;;
7162;SDS011;3623;47.098;15.446;2023-02-02T05:37:54;0.70;;;0.70;;
7162;SDS011;3623;47.098;15.446;2023-02-02T05:40:21;0.82;;;0.82;;
7162;SDS011;3623;47.098;15.446;2023-02-02T05:42:48;2.90;;;0.80;;
7162;SDS011;3623;47.098;15.446;2023-02-02T05:45:15;0.70;;;0.70;;
7162;SDS011;3623;47.098;15.446;2023-02-02T05:47:42;0.80;;;0.80;;
7162;SDS011;3623;47.098;15.446;2023-02-02T05:50:10;0.93;;;0.93;;
7162;SDS011;3623;47.098;15.446;2023-02-02T05:52:37;0.80;;;0.80;;
7162;SDS011;3623;47.098;15.446;2023-02-02T05:55:08;0.80;;;0.80;;
7162;SDS011;3623;47.098;15.446;2023-02-02T05:57:35;0.73;;;0.73;;
7162;SDS011;3623;47.098;15.446;2023-02-02T06:00:03;0.70;;;0.70;;
7162;SDS011;3623;47.098;15.446;2023-02-02T06:02:31;1.17;;;0.95;;
7162;SDS011;3623;47.098;15.446;2023-02-02T06:04:58;1.05;;;1.05;;
7162;SDS011;3623;47.098;15.446;2023-02-02T06:07:25;1.60;;;1.50;;
7162;SDS011;3623;47.098;15.446;2023-02-02T06:09:52;1.00;;;1.00;;
7162;SDS011;3623;47.098;15.446;2023-02-02T06:12:21;1.10;;;1.10;;
7162;SDS011;3623;47.098;15.446;2023-02-02T06:14:48;0.82;;;0.82;;
7162;SDS011;3623;47.098;15.446;2023-02-02T06:17:15;0.80;;;0.80;;
7162;SDS011;3623;47.098;15.446;2023-02-02T06:19:42;0.98;;;0.98;;
7162;SDS011;3623;47.098;15.446;2023-02-02T06:22:09;0.80;;;0.80;;
7162;SDS011;3623;47.098;15.446;2023-02-02T06:24:36;0.90;;;0.90;;
7162;SDS011;3623;47.098;15.446;2023-02-02T06:27:03;0.80;;;0.80;;
7162;SDS011;3623;47.098;15.446;2023-02-02T06:29:32;0.77;;;0.77;;
7162;SDS011;3623;47.098;15.446;2023-02-02T06:31:59;0.80;;;0.80;;
7162;SDS011;3623;47.098;15.446;2023-02-02T06:34:26;0.80;;;0.80;;
7162;SDS011;3623;47.098;15.446;2023-02-02T06:36:53;1.00;;;1.00;;
7162;SDS011;3623;47.098;15.446;2023-02-02T06:39:20;1.00;;;1.00;;
7162;SDS011;3623;47.098;15.446;2023-02-02T06:41:47;2.35;;;2.25;;
7162;SDS011;3623;47.098;15.446;2023-02-02T06:44:16;1.27;;;1.27;;
7162;SDS011;3623;47.098;15.446;2023-02-02T06:46:45;1.15;;;1.15;;
7162;SDS011;3623;47.098;15.446;2023-02-02T06:49:12;1.20;;;1.10;;
7162;SDS011;3623;47.098;15.446;2023-02-02T06:51:39;1.80;;;1.70;;
7162;SDS011;3623;47.098;15.446;2023-02-02T06:54:06;2.00;;;1.90;;
7162;SDS011;3623;47.098;15.446;2023-02-02T06:56:33;1.60;;;1.60;;
7162;SDS011;3623;47.098;15.446;2023-02-02T06:59:00;2.10;;;2.00;;
7162;SDS011;3623;47.098;15.446;2023-02-02T07:01:27;2.53;;;2.35;;
7162;SDS011;3623;47.098;15.446;2023-02-02T07:03:56;1.92;;;1.83;;
7162;SDS011;3623;47.098;15.446;2023-02-02T07:06:24;1.73;;;1.60;;
7162;SDS011;3623;47.098;15.446;2023-02-02T07:08:52;1.83;;;1.73;;
7162;SDS011;3623;47.098;15.446;2023-02-02T07:11:19;2.10;;;2.00;;
7162;SDS011;3623;47.098;15.446;2023-02-02T07:13:47;1.90;;;1.80;;
7162;SDS011;3623;47.098;15.446;2023-02-02T07:16:15;51.13;;;10.32;;
7162;SDS011;3623;47.098;15.446;2023-02-02T07:18:44;3.17;;;2.95;;
7162;SDS011;3623;47.098;15.446;2023-02-02T07:21:16;4.25;;;3.85;;
7162;SDS011;3623;47.098;15.446;2023-02-02T07:23:45;4.45;;;4.05;;
7162;SDS011;3623;47.098;15.446;2023-02-02T07:26:12;4.07;;;3.60;;
7162;SDS011;3623;47.098;15.446;2023-02-02T07:28:40;4.40;;;4.00;;
7162;SDS011;3623;47.098;15.446;2023-02-02T07:31:14;5.72;;;3.25;;
7162;SDS011;3623;47.098;15.446;2023-02-02T07:33:42;6.28;;;3.38;;
7162;SDS011;3623;47.098;15.446;2023-02-02T07:36:10;3.83;;;3.15;;
7162;SDS011;3623;47.098;15.446;2023-02-02T07:38:41;6.00;;;2.85;;
7162;SDS011;3623;47.098;15.446;2023-02-02T07:41:10;3.75;;;3.42;;
7162;SDS011;3623;47.098;15.446;2023-02-02T07:43:37;4.15;;;3.72;;
7162;SDS011;3623;47.098;15.446;2023-02-02T07:46:05;5.63;;;2.50;;
7162;SDS011;3623;47.098;15.446;2023-02-02T07:48:34;5.10;;;3.10;;
7162;SDS011;3623;47.098;15.446;2023-02-02T07:51:02;4.78;;;3.60;;
7162;SDS011;3623;47.098;15.446;2023-02-02T07:53:30;4.38;;;3.40;;
7162;SDS011;3623;47.098;15.446;2023-02-02T07:56:07;5.05;;;4.05;;
7162;SDS011;3623;47.098;15.446;2023-02-02T07:58:35;3.75;;;3.50;;
7162;SDS011;3623;47.098;15.446;2023-02-02T08:01:02;4.72;;;4.00;;
7162;SDS011;3623;47.098;15.446;2023-02-02T08:03:30;3.70;;;3.40;;
7162;SDS011;3623;47.098;15.446;2023-02-02T08:05:57;3.53;;;3.30;;
7162;SDS011;3623;47.098;15.446;2023-02-02T08:08:25;3.58;;;3.28;;
7162;SDS011;3623;47.098;15.446;2023-02-02T08:10:52;13.68;;;8.80;;
7162;SDS011;3623;47.098;15.446;2023-02-02T08:13:21;15.65;;;7.97;;
7162;SDS011;3623;47.098;15.446;2023-02-02T08:15:48;21.58;;;11.02;;
7162;SDS011;3623;47.098;15.446;2023-02-02T08:18:15;18.90;;;10.50;;
7162;SDS011;3623;47.098;15.446;2023-02-02T08:20:42;4.15;;;3.47;;
7162;SDS011;3623;47.098;15.446;2023-02-02T08:23:09;2.50;;;2.30;;
7162;SDS011;3623;47.098;15.446;2023-02-02T08:25:40;2.58;;;2.38;;
7162;SDS011;3623;47.098;15.446;2023-02-02T08:28:07;2.70;;;2.50;;
7162;SDS011;3623;47.098;15.446;2023-02-02T08:30:35;2.17;;;2.08;;
7162;SDS011;3623;47.098;15.446;2023-02-02T08:33:02;2.22;;;2.10;;
7162;SDS011;3623;47.098;15.446;2023-02-02T08:35:29;2.28;;;2.17;;
7162;SDS011;3623;47.098;15.446;2023-02-02T08:37:56;2.33;;;2.22;;
7162;SDS011;3623;47.098;15.446;2023-02-02T08:40:27;2.58;;;2.38;;
7162;SDS011;3623;47.098;15.446;2023-02-02T08:42:54;1.73;;;1.63;;
7162;SDS011;3623;47.098;15.446;2023-02-02T08:45:21;2.97;;;2.78;;
7162;SDS011;3623;47.098;15.446;2023-02-02T08:47:49;3.13;;;2.65;;
7162;SDS011;3623;47.098;15.446;2023-02-02T08:50:16;2.25;;;2.05;;
7162;SDS011;3623;47.098;15.446;2023-02-02T08:52:43;2.20;;;2.10;;
7162;SDS011;3623;47.098;15.446;2023-02-02T08:55:10;1.88;;;1.73;;
7162;SDS011;3623;47.098;15.446;2023-02-02T08:57:39;3.10;;;1.65;;
7162;SDS011;3623;47.098;15.446;2023-02-02T09:00:06;2.50;;;2.35;;
7162;SDS011;3623;47.098;15.446;2023-02-02T09:02:35;5.30;;;2.20;;
7162;SDS011;3623;47.098;15.446;2023-02-02T09:05:04;1.65;;;1.55;;
7162;SDS011;3623;47.098;15.446;2023-02-02T09:07:32;2.83;;;2.63;;
7162;SDS011;3623;47.098;15.446;2023-02-02T09:09:59;2.25;;;2.15;;
7162;SDS011;3623;47.098;15.446;2023-02-02T09:12:26;2.72;;;2.63;;
7162;SDS011;3623;47.098;15.446;2023-02-02T09:14:53;2.72;;;2.15;;
7162;SDS011;3623;47.098;15.446;2023-02-02T09:17:20;2.28;;;2.17;;
7162;SDS011;3623;47.098;15.446;2023-02-02T09:19:48;2.70;;;2.17;;
7162;SDS011;3623;47.098;15.446;2023-02-02T09:22:16;1.88;;;1.77;;
7162;SDS011;3623;47.098;15.446;2023-02-02T09:24:43;1.88;;;1.77;;
7162;SDS011;3623;47.098;15.446;2023-02-02T09:27:10;1.80;;;1.73;;
7162;SDS011;3623;47.098;15.446;2023-02-02T09:29:37;1.52;;;1.42;;
7162;SDS011;3623;47.098;15.446;2023-02-02T09:32:04;1.30;;;1.30;;
7162;SDS011;3623;47.098;15.446;2023-02-02T09:34:33;1.88;;;1.25;;
7162;SDS011;3623;47.098;15.446;2023-02-02T09:37:00;1.10;;;1.00;;
7162;SDS011;3623;47.098;15.446;2023-02-02T09:39:28;1.50;;;1.50;;
7162;SDS011;3623;47.098;15.446;2023-02-02T09:42:03;1.95;;;1.85;;
7162;SDS011;3623;47.098;15.446;2023-02-02T09:44:53;1.95;;;1.85;;
7162;SDS011;3623;47.098;15.446;2023-02-02T09:47:24;2.38;;;2.20;;
7162;SDS011;3623;47.098;15.446;2023-02-02T09:50:00;2.15;;;2.05;;
7162;SDS011;3623;47.098;15.446;2023-02-02T09:52:32;3.53;;;2.80;;
7162;SDS011;3623;47.098;15.446;2023-02-02T09:55:09;2.72;;;2.53;;
7162;SDS011;3623;47.098;15.446;2023-02-02T09:57:42;2.40;;;2.30;;
7162;SDS011;3623;47.098;15.446;2023-02-02T10:00:17;2.92;;;2.25;;
7162;SDS011;3623;47.098;15.446;2023-02-02T10:02:51;1.80;;;1.70;;
7162;SDS011;3623;47.098;15.446;2023-02-02T10:05:25;1.58;;;1.58;;
7162;SDS011;3623;47.098;15.446;2023-02-02T10:08:00;2.00;;;1.83;;
7162;SDS011;3623;47.098;15.446;2023-02-02T10:10:32;1.83;;;1.73;;
7162;SDS011;3623;47.098;15.446;2023-02-02T10:13:05;1.60;;;1.60;;
7162;SDS011;3623;47.098;15.446;2023-02-02T10:15:41;2.00;;;1.90;;
7162;SDS011;3623;47.098;15.446;2023-02-02T10:18:18;1.77;;;1.67;;
7162;SDS011;3623;47.098;15.446;2023-02-02T10:20:53;2.45;;;1.90;;
7162;SDS011;3623;47.098;15.446;2023-02-02T10:23:24;2.00;;;1.90;;
7162;SDS011;3623;47.098;15.446;2023-02-02T10:25:56;2.25;;;2.15;;
7162;SDS011;3623;47.098;15.446;2023-02-02T10:28:34;1.90;;;1.80;;
7162;SDS011;3623;47.098;15.446;2023-02-02T10:31:21;2.83;;;2.55;;
7162;SDS011;3623;47.098;15.446;2023-02-02T10:34:00;2.45;;;2.25;;
7162;SDS011;3623;47.098;15.446;2023-02-02T10:36:38;2.70;;;2.60;;
7162;SDS011;3623;47.098;15.446;2023-02-02T10:39:18;2.80;;;2.60;;
7162;SDS011;3623;47.098;15.446;2023-02-02T10:41:55;3.20;;;3.00;;
7162;SDS011;3623;47.098;15.446;2023-02-02T10:44:30;4.22;;;3.58;;
7162;SDS011;3623;47.098;15.446;2023-02-02T10:47:03;4.10;;;3.80;;
7162;SDS011;3623;47.098;15.446;2023-02-02T10:49:34;8.45;;;6.82;;
7162;SDS011;3623;47.098;15.446;2023-02-02T10:52:04;6.93;;;6.32;;
7162;SDS011;3623;47.098;15.446;2023-02-02T10:54:52;7.18;;;6.68;;
7162;SDS011;3623;47.098;15.446;2023-02-02T10:57:29;7.05;;;6.55;;
7162;SDS011;3623;47.098;15.446;2023-02-02T11:00:04;6.10;;;5.60;;
7162;SDS011;3623;47.098;15.446;2023-02-02T11:02:39;6.53;;;5.85;;
7162;SDS011;3623;47.098;15.446;2023-02-02T11:05:10;7.15;;;6.65;;
7162;SDS011;3623;47.098;15.446;2023-02-02T11:07:58;8.02;;;7.35;;
7162;SDS011;3623;47.098;15.446;2023-02-02T11:10:25;7.80;;;7.00;;
7162;SDS011;3623;47.098;15.446;2023-02-02T11:12:54;7.10;;;6.60;;
7162;SDS011;3623;47.098;15.446;2023-02-02T11:15:24;6.95;;;6.35;;
7162;SDS011;3623;47.098;15.446;2023-02-02T11:17:53;7.78;;;7.18;;
7162;SDS011;3623;47.098;15.446;2023-02-02T11:20:21;7.18;;;6.47;;
7162;SDS011;3623;47.098;15.446;2023-02-02T11:22:58;7.22;;;6.72;;
7162;SDS011;3623;47.098;15.446;2023-02-02T11:25:28;7.93;;;7.43;;
7162;SDS011;3623;47.098;15.446;2023-02-02T11:27:59;8.60;;;7.78;;
7162;SDS011;3623;47.098;15.446;2023-02-02T11:30:36;7.65;;;7.03;;
7162;SDS011;3623;47.098;15.446;2023-02-02T11:33:17;7.95;;;7.22;;
7162;SDS011;3623;47.098;15.446;2023-02-02T11:35:51;7.90;;;7.20;;
7162;SDS011;3623;47.098;15.446;2023-02-02T11:38:20;8.52;;;7.93;;
7162;SDS011;3623;47.098;15.446;2023-02-02T11:40:51;8.23;;;7.65;;
7162;SDS011;3623;47.098;15.446;2023-02-02T11:43:22;8.27;;;7.68;;
7162;SDS011;3623;47.098;15.446;2023-02-02T11:45:53;8.77;;;7.80;;
7162;SDS011;3623;47.098;15.446;2023-02-02T11:48:23;7.93;;;7.28;;
7162;SDS011;3623;47.098;15.446;2023-02-02T11:50:55;9.40;;;8.52;;
7162;SDS011;3623;47.098;15.446;2023-02-02T11:53:25;8.68;;;7.95;;
7162;SDS011;3623;47.098;15.446;2023-02-02T11:55:56;10.60;;;7.80;;
7162;SDS011;3623;47.098;15.446;2023-02-02T11:58:27;8.40;;;7.60;;
7162;SDS011;3623;47.098;15.446;2023-02-02T12:01:10;8.38;;;7.68;;
7162;SDS011;3623;47.098;15.446;2023-02-02T12:03:48;10.27;;;9.32;;
7162;SDS011;3623;47.098;15.446;2023-02-02T12:06:16;8.98;;;8.10;;
7162;SDS011;3623;47.098;15.446;2023-02-02T12:08:45;8.40;;;7.70;;
7162;SDS011;3623;47.098;15.446;2023-02-02T12:11:15;10.23;;;9.32;;
7162;SDS011;3623;47.098;15.446;2023-02-02T12:14:02;9.27;;;8.40;;
7162;SDS011;3623;47.098;15.446;2023-02-02T12:16:44;7.97;;;7.28;;
7162;SDS011;3623;47.098;15.446;2023-02-02T12:19:26;7.95;;;7.25;;
7162;SDS011;3623;47.098;15.446;2023-02-02T12:22:09;7.68;;;7.07;;
7162;SDS011;3623;47.098;15.446;2023-02-02T12:24:49;8.02;;;7.43;;
7162;SDS011;3623;47.098;15.446;2023-02-02T12:27:23;7.75;;;7.05;;
7162;SDS011;3623;47.098;15.446;2023-02-02T12:30:07;9.57;;;8.73;;
7162;SDS011;3623;47.098;15.446;2023-02-02T12:32:45;7.72;;;6.95;;
7162;SDS011;3623;47.098;15.446;2023-02-02T12:35:31;9.00;;;8.07;;
7162;SDS011;3623;47.098;15.446;2023-02-02T12:38:14;8.68;;;7.88;;
7162;SDS011;3623;47.098;15.446;2023-02-02T12:40:58;6.18;;;5.55;;
7162;SDS011;3623;47.098;15.446;2023-02-02T12:43:43;6.50;;;5.90;;
7162;SDS011;3623;47.098;15.446;2023-02-02T12:46:18;5.40;;;4.85;;
7162;SDS011;3623;47.098;15.446;2023-02-02T12:49:01;6.82;;;4.93;;
7162;SDS011;3623;47.098;15.446;2023-02-02T12:51:46;4.70;;;4.30;;
7162;SDS011;3623;47.098;15.446;2023-02-02T12:54:43;3.60;;;3.40;;
7162;SDS011;3623;47.098;15.446;2023-02-02T12:57:20;5.22;;;4.72;;
7162;SDS011;3623;47.098;15.446;2023-02-02T13:00:00;3.67;;;3.38;;
7162;SDS011;3623;47.098;15.446;2023-02-02T13:02:40;4.40;;;4.07;;
7162;SDS011;3623;47.098;15.446;2023-02-02T13:05:29;3.60;;;3.30;;
7162;SDS011;3623;47.098;15.446;2023-02-02T13:08:05;3.83;;;3.63;;
7162;SDS011;3623;47.098;15.446;2023-02-02T13:10:35;4.40;;;4.05;;
7162;SDS011;3623;47.098;15.446;2023-02-02T13:13:06;4.10;;;3.90;;
7162;SDS011;3623;47.098;15.446;2023-02-02T13:15:39;4.20;;;3.80;;
7162;SDS011;3623;47.098;15.446;2023-02-02T13:18:11;4.78;;;4.47;;
7162;SDS011;3623;47.098;15.446;2023-02-02T13:20:44;4.65;;;4.25;;
7162;SDS011;3623;47.098;15.446;2023-02-02T13:23:16;4.30;;;4.00;;
7162;SDS011;3623;47.098;15.446;2023-02-02T13:25:48;3.78;;;3.47;;
7162;SDS011;3623;47.098;15.446;2023-02-02T13:28:23;2.60;;;2.50;;
7162;SDS011;3623;47.098;15.446;2023-02-02T13:31:01;3.78;;;3.47;;
7162;SDS011;3623;47.098;15.446;2023-02-02T13:33:36;3.08;;;2.92;;
7162;SDS011;3623;47.098;15.446;2023-02-02T13:36:05;3.28;;;3.08;;
7162;SDS011;3623;47.098;15.446;2023-02-02T13:38:38;3.95;;;3.17;;
7162;SDS011;3623;47.098;15.446;2023-02-02T13:41:08;3.70;;;3.50;;
7162;SDS011;3623;47.098;15.446;2023-02-02T13:43:39;4.10;;;3.80;;
7162;SDS011;3623;47.098;15.446;2023-02-02T13:46:22;4.20;;;3.88;;
7162;SDS011;3623;47.098;15.446;2023-02-02T13:48:58;3.97;;;3.65;;
7162;SDS011;3623;47.098;15.446;2023-02-02T13:51:37;6.60;;;3.88;;
7162;SDS011;3623;47.098;15.446;2023-02-02T13:57:38;4.43;;;4.13;;
7162;SDS011;3623;47.098;15.446;2023-02-02T14:00:29;3.35;;;3.15;;
7162;SDS011;3623;47.098;15.446;2023-02-02T14:03:02;2.88;;;2.67;;
7162;SDS011;3623;47.098;15.446;2023-02-02T14:05:32;6.93;;;3.80;;
7162;SDS011;3623;47.098;15.446;2023-02-02T14:08:02;5.68;;;3.70;;
7162;SDS011;3623;47.098;15.446;2023-02-02T14:10:34;3.83;;;3.05;;
7162;SDS011;3623;47.098;15.446;2023-02-02T14:13:04;2.72;;;2.63;;
7162;SDS011;3623;47.098;15.446;2023-02-02T14:15:56;4.05;;;3.65;;
7162;SDS011;3623;47.098;15.446;2023-02-02T14:18:50;3.63;;;3.25;;
7162;SDS011;3623;47.098;15.446;2023-02-02T14:24:42;6.38;;;4.55;;
7162;SDS011;3623;47.098;15.446;2023-02-02T14:30:25;4.70;;;4.28;;
7162;SDS011;3623;47.098;15.446;2023-02-02T14:35:55;5.07;;;4.57;;
7162;SDS011;3623;47.098;15.446;2023-02-02T14:38:36;6.03;;;5.05;;
7162;SDS011;3623;47.098;15.446;2023-02-02T14:41:41;12.90;;;5.72;;
7162;SDS011;3623;47.098;15.446;2023-02-02T14:44:47;4.90;;;4.50;;
7162;SDS011;3623;47.098;15.446;2023-02-02T14:47:48;4.78;;;4.38;;
7162;SDS011;3623;47.098;15.446;2023-02-02T14:50:19;3.75;;;3.40;;
7162;SDS011;3623;47.098;15.446;2023-02-02T14:52:57;7.32;;;4.30;;
7162;SDS011;3623;47.098;15.446;2023-02-02T14:55:29;3.28;;;2.97;;
7162;SDS011;3623;47.098;15.446;2023-02-02T14:57:57;3.58;;;3.30;;
7162;SDS011;3623;47.098;15.446;2023-02-02T15:00:27;3.88;;;3.30;;
7162;SDS011;3623;47.098;15.446;2023-02-02T15:06:03;3.28;;;3.08;;
7162;SDS011;3623;47.098;15.446;2023-02-02T15:08:33;4.47;;;2.78;;
7162;SDS011;3623;47.098;15.446;2023-02-02T15:11:03;3.38;;;3.08;;
7162;SDS011;3623;47.098;15.446;2023-02-02T15:13:45;3.08;;;2.88;;
7162;SDS011;3623;47.098;15.446;2023-02-02T15:16:20;3.60;;;3.40;;
7162;SDS011;3623;47.098;15.446;2023-02-02T15:18:54;3.25;;;3.03;;
7162;SDS011;3623;47.098;15.446;2023-02-02T15:21:29;3.40;;;3.20;;
7162;SDS011;3623;47.098;15.446;2023-02-02T15:23:59;7.15;;;3.72;;
7162;SDS011;3623;47.098;15.446;2023-02-02T15:26:29;4.40;;;3.20;;
7162;SDS011;3623;47.098;15.446;2023-02-02T15:29:02;4.07;;;3.67;;
7162;SDS011;3623;47.098;15.446;2023-02-02T15:31:34;3.47;;;3.15;;
7162;SDS011;3623;47.098;15.446;2023-02-02T15:34:08;3.35;;;3.10;;
7162;SDS011;3623;47.098;15.446;2023-02-02T15:36:40;3.60;;;3.40;;
7162;SDS011;3623;47.098;15.446;2023-02-02T15:39:12;3.25;;;3.05;;
7162;SDS011;3623;47.098;15.446;2023-02-02T15:41:52;3.50;;;3.30;;
7162;SDS011;3623;47.098;15.446;2023-02-02T15:44:34;4.78;;;3.60;;
7162;SDS011;3623;47.098;15.446;2023-02-02T15:47:02;4.00;;;3.28;;
7162;SDS011;3623;47.098;15.446;2023-02-02T15:49:33;2.90;;;2.70;;